Witchford, United Kingdom
Current Conditions -  °F | °C
As of 3:58 AM on Saturday 29 Nov 2014 (Local Time) from EGUN Reporting Station
Overcast Overcast  
Wind Chill: 50°   Ceiling: 13000
Heat Index: 50°   Visibility: 6mi
Dew Point: 48°   Wind: 9mph
Humidity: 92%   Direction: 110°ESE
Pressure: 29.8"   Gusts: NA
Location:  52.39°N, 0.21°E
Report Text: EGUN 290358Z AUTO 11008KT 9999 FEW009 OVC130 10/09 A2980 RMK AO2 SLP095 T01000087 $
Loading
Personal Weather Stations






























Interactive Weather Map New forecast layout! Learn more

10-Day Weather Forecast

Advertisements
Track Severe Weather on mobile